sensor_id;sensor_type;location;lat;lon;timestamp;temperature;humidity
71088;SHT31;58747;50.674;4.616;2023-02-12T00:02:06;7.82;87.62
71088;SHT31;58747;50.674;4.616;2023-02-12T00:04:31;7.79;87.67
71088;SHT31;58747;50.674;4.616;2023-02-12T00:06:56;7.75;87.70
71088;SHT31;58747;50.674;4.616;2023-02-12T00:09:22;7.75;87.65
71088;SHT31;58747;50.674;4.616;2023-02-12T00:11:47;7.74;87.77
71088;SHT31;58747;50.674;4.616;2023-02-12T00:14:12;7.73;87.84
71088;SHT31;58747;50.674;4.616;2023-02-12T00:16:38;7.70;87.75
71088;SHT31;58747;50.674;4.616;2023-02-12T00:19:03;7.70;87.69
71088;SHT31;58747;50.674;4.616;2023-02-12T00:21:28;7.70;87.75
71088;SHT31;58747;50.674;4.616;2023-02-12T00:23:55;7.63;87.28
71088;SHT31;58747;50.674;4.616;2023-02-12T00:26:21;7.58;87.24
71088;SHT31;58747;50.674;4.616;2023-02-12T00:28:47;7.56;87.26
71088;SHT31;58747;50.674;4.616;2023-02-12T00:31:16;7.57;87.19
71088;SHT31;58747;50.674;4.616;2023-02-12T00:33:45;7.58;86.77
71088;SHT31;58747;50.674;4.616;2023-02-12T00:36:16;7.56;86.88
71088;SHT31;58747;50.674;4.616;2023-02-12T00:38:42;7.56;87.04
71088;SHT31;58747;50.674;4.616;2023-02-12T00:41:08;7.50;87.06
71088;SHT31;58747;50.674;4.616;2023-02-12T00:43:33;7.51;86.87
71088;SHT31;58747;50.674;4.616;2023-02-12T00:45:59;7.50;86.77
71088;SHT31;58747;50.674;4.616;2023-02-12T00:48:24;7.56;86.63
71088;SHT31;58747;50.674;4.616;2023-02-12T00:50:50;7.53;86.46
71088;SHT31;58747;50.674;4.616;2023-02-12T00:53:15;7.47;86.51
71088;SHT31;58747;50.674;4.616;2023-02-12T00:55:40;7.50;86.56
71088;SHT31;58747;50.674;4.616;2023-02-12T00:58:07;7.48;86.48
71088;SHT31;58747;50.674;4.616;2023-02-12T01:00:32;7.47;86.57
71088;SHT31;58747;50.674;4.616;2023-02-12T01:02:58;7.47;86.60
71088;SHT31;58747;50.674;4.616;2023-02-12T01:05:24;7.46;86.60
71088;SHT31;58747;50.674;4.616;2023-02-12T01:07:50;7.47;86.12
71088;SHT31;58747;50.674;4.616;2023-02-12T01:10:16;7.38;86.28
71088;SHT31;58747;50.674;4.616;2023-02-12T01:12:42;7.43;86.37
71088;SHT31;58747;50.674;4.616;2023-02-12T01:15:08;7.42;86.39
71088;SHT31;58747;50.674;4.616;2023-02-12T01:17:35;7.40;86.23
71088;SHT31;58747;50.674;4.616;2023-02-12T01:20:00;7.37;86.43
71088;SHT31;58747;50.674;4.616;2023-02-12T01:22:26;7.36;86.41
71088;SHT31;58747;50.674;4.616;2023-02-12T01:24:51;7.33;86.39
71088;SHT31;58747;50.674;4.616;2023-02-12T01:27:16;7.27;86.27
71088;SHT31;58747;50.674;4.616;2023-02-12T01:29:42;7.33;86.10
71088;SHT31;58747;50.674;4.616;2023-02-12T01:32:09;7.44;86.06
71088;SHT31;58747;50.674;4.616;2023-02-12T01:34:35;7.37;85.98
71088;SHT31;58747;50.674;4.616;2023-02-12T01:37:00;7.24;85.00
71088;SHT31;58747;50.674;4.616;2023-02-12T01:39:25;7.22;85.48
71088;SHT31;58747;50.674;4.616;2023-02-12T01:41:51;7.22;85.80
71088;SHT31;58747;50.674;4.616;2023-02-12T01:44:18;7.26;86.00
71088;SHT31;58747;50.674;4.616;2023-02-12T01:46:47;7.29;85.59
71088;SHT31;58747;50.674;4.616;2023-02-12T01:49:20;7.23;85.66
71088;SHT31;58747;50.674;4.616;2023-02-12T01:51:53;7.20;85.68
71088;SHT31;58747;50.674;4.616;2023-02-12T01:54:21;7.20;85.72
71088;SHT31;58747;50.674;4.616;2023-02-12T01:56:48;7.20;85.51
71088;SHT31;58747;50.674;4.616;2023-02-12T01:59:13;7.17;85.53
71088;SHT31;58747;50.674;4.616;2023-02-12T02:01:39;7.19;85.81
71088;SHT31;58747;50.674;4.616;2023-02-12T02:04:07;7.13;85.91
71088;SHT31;58747;50.674;4.616;2023-02-12T02:06:38;7.17;85.80
71088;SHT31;58747;50.674;4.616;2023-02-12T02:09:07;7.23;85.78
71088;SHT31;58747;50.674;4.616;2023-02-12T02:11:32;7.22;85.43
71088;SHT31;58747;50.674;4.616;2023-02-12T02:14:16;7.20;85.49
71088;SHT31;58747;50.674;4.616;2023-02-12T02:33:24;7.09;85.45
71088;SHT31;58747;50.674;4.616;2023-02-12T02:38:51;6.99;85.91
71088;SHT31;58747;50.674;4.616;2023-02-12T02:41:30;6.98;86.05
71088;SHT31;58747;50.674;4.616;2023-02-12T02:44:03;7.00;85.78
71088;SHT31;58747;50.674;4.616;2023-02-12T02:46:32;7.03;85.75
71088;SHT31;58747;50.674;4.616;2023-02-12T02:49:05;7.03;85.72
71088;SHT31;58747;50.674;4.616;2023-02-12T02:51:36;6.98;85.82
71088;SHT31;58747;50.674;4.616;2023-02-12T02:54:18;6.99;85.37
71088;SHT31;58747;50.674;4.616;2023-02-12T02:56:46;6.92;84.05
71088;SHT31;58747;50.674;4.616;2023-02-12T02:59:21;6.93;83.68
71088;SHT31;58747;50.674;4.616;2023-02-12T03:01:56;6.98;85.02
71088;SHT31;58747;50.674;4.616;2023-02-12T03:04:28;7.02;85.09
71088;SHT31;58747;50.674;4.616;2023-02-12T03:07:07;7.00;85.07
71088;SHT31;58747;50.674;4.616;2023-02-12T03:09:39;7.00;85.32
71088;SHT31;58747;50.674;4.616;2023-02-12T03:12:14;6.98;85.32
71088;SHT31;58747;50.674;4.616;2023-02-12T03:14:54;7.02;85.25
71088;SHT31;58747;50.674;4.616;2023-02-12T03:17:34;6.92;85.36
71088;SHT31;58747;50.674;4.616;2023-02-12T03:20:07;6.91;85.42
71088;SHT31;58747;50.674;4.616;2023-02-12T03:22:37;6.84;84.22
71088;SHT31;58747;50.674;4.616;2023-02-12T03:25:09;6.89;83.15
71088;SHT31;58747;50.674;4.616;2023-02-12T03:28:03;6.87;83.00
71088;SHT31;58747;50.674;4.616;2023-02-12T03:30:37;6.92;84.57
71088;SHT31;58747;50.674;4.616;2023-02-12T03:33:19;6.92;84.70
71088;SHT31;58747;50.674;4.616;2023-02-12T03:35:54;6.92;84.53
71088;SHT31;58747;50.674;4.616;2023-02-12T03:38:38;6.93;84.65
71088;SHT31;58747;50.674;4.616;2023-02-12T03:41:08;6.92;84.55
71088;SHT31;58747;50.674;4.616;2023-02-12T03:43:38;6.91;84.92
71088;SHT31;58747;50.674;4.616;2023-02-12T03:48:50;6.88;85.15
71088;SHT31;58747;50.674;4.616;2023-02-12T03:51:38;6.91;84.91
71088;SHT31;58747;50.674;4.616;2023-02-12T03:54:05;6.88;84.96
71088;SHT31;58747;50.674;4.616;2023-02-12T03:56:43;6.89;85.07
71088;SHT31;58747;50.674;4.616;2023-02-12T03:59:10;6.92;84.83
71088;SHT31;58747;50.674;4.616;2023-02-12T04:01:36;6.91;84.85
71088;SHT31;58747;50.674;4.616;2023-02-12T04:04:04;6.89;84.46
71088;SHT31;58747;50.674;4.616;2023-02-12T04:06:29;6.87;84.59
71088;SHT31;58747;50.674;4.616;2023-02-12T04:08:58;6.79;84.62
71088;SHT31;58747;50.674;4.616;2023-02-12T04:11:49;6.82;84.77
71088;SHT31;58747;50.674;4.616;2023-02-12T04:14:53;6.77;84.38
71088;SHT31;58747;50.674;4.616;2023-02-12T04:23:14;6.79;84.59
71088;SHT31;58747;50.674;4.616;2023-02-12T04:31:33;6.79;84.21
71088;SHT31;58747;50.674;4.616;2023-02-12T04:34:08;6.75;84.29
71088;SHT31;58747;50.674;4.616;2023-02-12T04:36:44;6.78;84.39
71088;SHT31;58747;50.674;4.616;2023-02-12T04:39:16;6.81;84.46
71088;SHT31;58747;50.674;4.616;2023-02-12T04:41:43;6.75;84.41
71088;SHT31;58747;50.674;4.616;2023-02-12T04:44:21;6.68;84.36
71088;SHT31;58747;50.674;4.616;2023-02-12T04:46:47;6.68;84.29
71088;SHT31;58747;50.674;4.616;2023-02-12T04:49:15;6.68;84.29
71088;SHT31;58747;50.674;4.616;2023-02-12T04:51:41;6.69;84.06
71088;SHT31;58747;50.674;4.616;2023-02-12T04:54:07;6.67;84.26
71088;SHT31;58747;50.674;4.616;2023-02-12T04:56:32;6.64;84.22
71088;SHT31;58747;50.674;4.616;2023-02-12T04:58:57;6.68;84.44
71088;SHT31;58747;50.674;4.616;2023-02-12T05:01:23;6.72;84.66
71088;SHT31;58747;50.674;4.616;2023-02-12T05:03:50;6.72;84.79
71088;SHT31;58747;50.674;4.616;2023-02-12T05:06:15;6.74;84.42
71088;SHT31;58747;50.674;4.616;2023-02-12T05:08:41;6.72;84.48
71088;SHT31;58747;50.674;4.616;2023-02-12T05:11:08;6.72;84.57
71088;SHT31;58747;50.674;4.616;2023-02-12T05:13:34;6.72;84.52
71088;SHT31;58747;50.674;4.616;2023-02-12T05:15:59;6.68;84.37
71088;SHT31;58747;50.674;4.616;2023-02-12T05:18:28;6.69;84.36
71088;SHT31;58747;50.674;4.616;2023-02-12T05:21:00;6.69;84.47
71088;SHT31;58747;50.674;4.616;2023-02-12T05:23:31;6.68;84.26
71088;SHT31;58747;50.674;4.616;2023-02-12T05:25:58;6.65;84.10
71088;SHT31;58747;50.674;4.616;2023-02-12T05:28:24;6.71;83.79
71088;SHT31;58747;50.674;4.616;2023-02-12T05:30:49;6.67;83.92
71088;SHT31;58747;50.674;4.616;2023-02-12T05:33:14;6.61;84.30
71088;SHT31;58747;50.674;4.616;2023-02-12T05:35:40;6.67;84.24
71088;SHT31;58747;50.674;4.616;2023-02-12T05:38:05;6.67;84.37
71088;SHT31;58747;50.674;4.616;2023-02-12T05:40:31;6.67;84.54
71088;SHT31;58747;50.674;4.616;2023-02-12T05:42:56;6.65;84.37
71088;SHT31;58747;50.674;4.616;2023-02-12T05:45:21;6.65;84.18
71088;SHT31;58747;50.674;4.616;2023-02-12T05:47:54;6.59;84.14
71088;SHT31;58747;50.674;4.616;2023-02-12T05:50:20;6.57;84.08
71088;SHT31;58747;50.674;4.616;2023-02-12T05:52:45;6.58;84.07
71088;SHT31;58747;50.674;4.616;2023-02-12T05:55:11;6.61;84.32
71088;SHT31;58747;50.674;4.616;2023-02-12T05:57:36;6.59;84.40
71088;SHT31;58747;50.674;4.616;2023-02-12T06:00:03;6.58;84.36
71088;SHT31;58747;50.674;4.616;2023-02-12T06:02:28;6.57;84.24
71088;SHT31;58747;50.674;4.616;2023-02-12T06:04:54;6.59;84.14
71088;SHT31;58747;50.674;4.616;2023-02-12T06:07:19;6.57;84.02
71088;SHT31;58747;50.674;4.616;2023-02-12T06:09:45;6.51;83.72
71088;SHT31;58747;50.674;4.616;2023-02-12T06:12:11;6.54;82.97
71088;SHT31;58747;50.674;4.616;2023-02-12T06:14:36;6.58;83.27
71088;SHT31;58747;50.674;4.616;2023-02-12T06:17:01;6.55;83.66
71088;SHT31;58747;50.674;4.616;2023-02-12T06:19:27;6.51;83.67
71088;SHT31;58747;50.674;4.616;2023-02-12T06:21:52;6.55;83.82
71088;SHT31;58747;50.674;4.616;2023-02-12T06:24:17;6.51;83.94
71088;SHT31;58747;50.674;4.616;2023-02-12T07:37:03;6.47;81.37
71088;SHT31;58747;50.674;4.616;2023-02-12T07:39:43;6.47;81.54
71088;SHT31;58747;50.674;4.616;2023-02-12T07:42:41;6.54;82.42
71088;SHT31;58747;50.674;4.616;2023-02-12T07:52:24;6.65;81.92
71088;SHT31;58747;50.674;4.616;2023-02-12T07:58:10;6.67;82.06
71088;SHT31;58747;50.674;4.616;2023-02-12T08:01:33;6.68;82.53
71088;SHT31;58747;50.674;4.616;2023-02-12T08:15:13;6.74;82.88
71088;SHT31;58747;50.674;4.616;2023-02-12T08:38:52;6.92;82.02
71088;SHT31;58747;50.674;4.616;2023-02-12T08:41:33;6.98;81.77
71088;SHT31;58747;50.674;4.616;2023-02-12T08:44:04;6.96;82.23
71088;SHT31;58747;50.674;4.616;2023-02-12T08:46:35;7.02;82.45
71088;SHT31;58747;50.674;4.616;2023-02-12T08:49:10;7.10;83.12
71088;SHT31;58747;50.674;4.616;2023-02-12T08:51:45;7.12;81.84
71088;SHT31;58747;50.674;4.616;2023-02-12T08:58:13;7.16;81.26
71088;SHT31;58747;50.674;4.616;2023-02-12T09:00:38;7.31;83.14
71088;SHT31;58747;50.674;4.616;2023-02-12T09:03:04;7.42;81.53
71088;SHT31;58747;50.674;4.616;2023-02-12T09:05:29;7.37;80.84
71088;SHT31;58747;50.674;4.616;2023-02-12T09:07:54;7.37;80.35
71088;SHT31;58747;50.674;4.616;2023-02-12T09:10:19;7.38;80.69
71088;SHT31;58747;50.674;4.616;2023-02-12T09:12:45;7.38;80.45
71088;SHT31;58747;50.674;4.616;2023-02-12T09:15:10;7.34;80.24
71088;SHT31;58747;50.674;4.616;2023-02-12T09:17:35;7.36;80.47
71088;SHT31;58747;50.674;4.616;2023-02-12T09:20:01;7.40;80.52
71088;SHT31;58747;50.674;4.616;2023-02-12T09:22:26;7.43;80.85
71088;SHT31;58747;50.674;4.616;2023-02-12T09:24:52;7.51;80.92
71088;SHT31;58747;50.674;4.616;2023-02-12T09:27:17;7.68;81.80
71088;SHT31;58747;50.674;4.616;2023-02-12T09:29:42;7.71;80.34
71088;SHT31;58747;50.674;4.616;2023-02-12T09:32:07;7.71;80.68
71088;SHT31;58747;50.674;4.616;2023-02-12T09:34:34;7.73;80.77
71088;SHT31;58747;50.674;4.616;2023-02-12T09:37:00;7.71;81.15
71088;SHT31;58747;50.674;4.616;2023-02-12T09:39:26;7.74;80.62
71088;SHT31;58747;50.674;4.616;2023-02-12T09:42:29;7.82;81.01
71088;SHT31;58747;50.674;4.616;2023-02-12T09:45:18;7.87;80.70
71088;SHT31;58747;50.674;4.616;2023-02-12T09:50:54;7.89;81.00
71088;SHT31;58747;50.674;4.616;2023-02-12T09:53:22;7.98;80.67
71088;SHT31;58747;50.674;4.616;2023-02-12T09:55:49;7.98;80.29
71088;SHT31;58747;50.674;4.616;2023-02-12T09:58:39;7.94;80.44
71088;SHT31;58747;50.674;4.616;2023-02-12T10:01:14;7.98;80.13
71088;SHT31;58747;50.674;4.616;2023-02-12T10:03:40;7.98;79.96
71088;SHT31;58747;50.674;4.616;2023-02-12T10:06:12;8.05;79.99
71088;SHT31;58747;50.674;4.616;2023-02-12T10:11:52;8.01;80.25
71088;SHT31;58747;50.674;4.616;2023-02-12T10:20:01;8.06;80.10
71088;SHT31;58747;50.674;4.616;2023-02-12T10:27:41;8.24;79.93
71088;SHT31;58747;50.674;4.616;2023-02-12T10:30:17;8.28;79.60
71088;SHT31;58747;50.674;4.616;2023-02-12T10:32:45;8.25;79.49
71088;SHT31;58747;50.674;4.616;2023-02-12T10:35:15;8.26;79.54
71088;SHT31;58747;50.674;4.616;2023-02-12T10:40:20;8.28;79.91
71088;SHT31;58747;50.674;4.616;2023-02-12T10:42:49;8.36;79.80
71088;SHT31;58747;50.674;4.616;2023-02-12T10:45:28;8.33;79.98
71088;SHT31;58747;50.674;4.616;2023-02-12T10:53:00;8.45;79.70
71088;SHT31;58747;50.674;4.616;2023-02-12T10:55:30;8.46;79.91
71088;SHT31;58747;50.674;4.616;2023-02-12T10:57:57;8.68;79.82
71088;SHT31;58747;50.674;4.616;2023-02-12T11:00:34;8.57;79.64
71088;SHT31;58747;50.674;4.616;2023-02-12T11:05:40;8.60;80.11
71088;SHT31;58747;50.674;4.616;2023-02-12T11:08:06;8.73;80.10
71088;SHT31;58747;50.674;4.616;2023-02-12T11:10:37;8.71;79.71
71088;SHT31;58747;50.674;4.616;2023-02-12T11:13:04;8.78;79.95
71088;SHT31;58747;50.674;4.616;2023-02-12T11:15:36;8.89;79.26
71088;SHT31;58747;50.674;4.616;2023-02-12T11:18:05;8.83;79.73
71088;SHT31;58747;50.674;4.616;2023-02-12T11:20:40;8.83;79.90
71088;SHT31;58747;50.674;4.616;2023-02-12T11:26:02;8.70;79.82
71088;SHT31;58747;50.674;4.616;2023-02-12T11:28:29;8.81;79.91
71088;SHT31;58747;50.674;4.616;2023-02-12T11:38:39;8.89;79.69
71088;SHT31;58747;50.674;4.616;2023-02-12T11:41:28;9.00;79.84
71088;SHT31;58747;50.674;4.616;2023-02-12T11:43:55;9.01;79.60
71088;SHT31;58747;50.674;4.616;2023-02-12T11:46:23;9.10;79.17
71088;SHT31;58747;50.674;4.616;2023-02-12T11:48:51;9.14;79.16
71088;SHT31;58747;50.674;4.616;2023-02-12T11:51:25;9.14;79.11
71088;SHT31;58747;50.674;4.616;2023-02-12T11:53:52;9.11;79.19
71088;SHT31;58747;50.674;4.616;2023-02-12T11:56:18;9.14;78.83
71088;SHT31;58747;50.674;4.616;2023-02-12T11:58:49;9.31;78.42
71088;SHT31;58747;50.674;4.616;2023-02-12T12:01:21;9.38;78.36
71088;SHT31;58747;50.674;4.616;2023-02-12T12:04:05;9.31;78.49
71088;SHT31;58747;50.674;4.616;2023-02-12T12:07:10;9.39;78.52
71088;SHT31;58747;50.674;4.616;2023-02-12T12:09:45;9.43;78.25
71088;SHT31;58747;50.674;4.616;2023-02-12T12:12:35;9.49;78.72
71088;SHT31;58747;50.674;4.616;2023-02-12T12:15:06;9.50;78.82
71088;SHT31;58747;50.674;4.616;2023-02-12T12:17:58;9.56;78.12
71088;SHT31;58747;50.674;4.616;2023-02-12T12:20:53;9.57;77.95
71088;SHT31;58747;50.674;4.616;2023-02-12T12:23:34;9.54;77.44
71088;SHT31;58747;50.674;4.616;2023-02-12T12:26:26;9.54;78.20
71088;SHT31;58747;50.674;4.616;2023-02-12T12:31:46;9.56;78.48
71088;SHT31;58747;50.674;4.616;2023-02-12T12:34:18;9.59;78.51
71088;SHT31;58747;50.674;4.616;2023-02-12T12:39:27;9.46;77.92
71088;SHT31;58747;50.674;4.616;2023-02-12T13:09:56;9.18;79.79
71088;SHT31;58747;50.674;4.616;2023-02-12T13:12:51;9.08;79.98
71088;SHT31;58747;50.674;4.616;2023-02-12T13:20:54;9.42;79.87
71088;SHT31;58747;50.674;4.616;2023-02-12T13:26:15;9.21;80.14
71088;SHT31;58747;50.674;4.616;2023-02-12T13:28:46;9.16;80.38
71088;SHT31;58747;50.674;4.616;2023-02-12T13:31:17;9.04;80.34
71088;SHT31;58747;50.674;4.616;2023-02-12T13:33:59;9.00;80.69
71088;SHT31;58747;50.674;4.616;2023-02-12T13:36:24;9.04;80.85
71088;SHT31;58747;50.674;4.616;2023-02-12T13:38:55;9.05;80.98
71088;SHT31;58747;50.674;4.616;2023-02-12T13:41:22;9.03;81.06
71088;SHT31;58747;50.674;4.616;2023-02-12T13:52:08;8.95;80.99
71088;SHT31;58747;50.674;4.616;2023-02-12T13:57:19;9.00;81.27
71088;SHT31;58747;50.674;4.616;2023-02-12T13:59:49;8.89;81.40
71088;SHT31;58747;50.674;4.616;2023-02-12T14:07:19;8.94;80.84
71088;SHT31;58747;50.674;4.616;2023-02-12T14:15:02;9.05;80.91
71088;SHT31;58747;50.674;4.616;2023-02-12T14:35:37;9.03;80.03
71088;SHT31;58747;50.674;4.616;2023-02-12T14:40:43;9.04;79.42
71088;SHT31;58747;50.674;4.616;2023-02-12T14:43:33;9.15;79.60
71088;SHT31;58747;50.674;4.616;2023-02-12T14:48:56;9.26;79.91
71088;SHT31;58747;50.674;4.616;2023-02-12T14:51:40;9.38;79.98
71088;SHT31;58747;50.674;4.616;2023-02-12T14:54:24;9.40;79.86
71088;SHT31;58747;50.674;4.616;2023-02-12T14:56:51;9.31;79.74
71088;SHT31;58747;50.674;4.616;2023-02-12T14:59:19;9.24;79.69
71088;SHT31;58747;50.674;4.616;2023-02-12T15:01:47;9.16;80.17
71088;SHT31;58747;50.674;4.616;2023-02-12T15:04:24;9.12;80.47
71088;SHT31;58747;50.674;4.616;2023-02-12T15:07:02;9.04;80.72
71088;SHT31;58747;50.674;4.616;2023-02-12T15:09:36;9.03;80.81
71088;SHT31;58747;50.674;4.616;2023-02-12T15:12:13;8.91;81.01
71088;SHT31;58747;50.674;4.616;2023-02-12T15:14:44;8.88;81.18
71088;SHT31;58747;50.674;4.616;2023-02-12T15:17:25;8.85;81.16
71088;SHT31;58747;50.674;4.616;2023-02-12T15:20:19;8.83;81.17
71088;SHT31;58747;50.674;4.616;2023-02-12T15:22:45;8.88;81.29
71088;SHT31;58747;50.674;4.616;2023-02-12T15:25:27;8.83;81.42
71088;SHT31;58747;50.674;4.616;2023-02-12T15:28:23;8.78;81.32
71088;SHT31;58747;50.674;4.616;2023-02-12T15:30:50;8.87;81.29
71088;SHT31;58747;50.674;4.616;2023-02-12T15:33:29;8.83;81.42
71088;SHT31;58747;50.674;4.616;2023-02-12T15:35:55;8.71;81.60
71088;SHT31;58747;50.674;4.616;2023-02-12T15:38:39;8.97;81.20
71088;SHT31;58747;50.674;4.616;2023-02-12T15:41:07;8.94;81.66
71088;SHT31;58747;50.674;4.616;2023-02-12T15:43:37;8.88;81.69
71088;SHT31;58747;50.674;4.616;2023-02-12T15:46:05;8.94;81.67
71088;SHT31;58747;50.674;4.616;2023-02-12T15:48:35;9.00;81.51
71088;SHT31;58747;50.674;4.616;2023-02-12T15:51:06;8.87;81.45
71088;SHT31;58747;50.674;4.616;2023-02-12T15:53:33;8.80;81.63
71088;SHT31;58747;50.674;4.616;2023-02-12T15:55:59;8.75;81.79
71088;SHT31;58747;50.674;4.616;2023-02-12T16:00:52;8.64;82.24
71088;SHT31;58747;50.674;4.616;2023-02-12T16:03:30;8.68;82.35
71088;SHT31;58747;50.674;4.616;2023-02-12T16:06:01;8.68;82.30
71088;SHT31;58747;50.674;4.616;2023-02-12T16:08:28;8.66;82.42
71088;SHT31;58747;50.674;4.616;2023-02-12T16:10:54;8.57;82.67
71088;SHT31;58747;50.674;4.616;2023-02-12T16:13:30;8.60;82.64
71088;SHT31;58747;50.674;4.616;2023-02-12T16:16:26;8.46;82.87
71088;SHT31;58747;50.674;4.616;2023-02-12T16:19:05;8.47;82.95
71088;SHT31;58747;50.674;4.616;2023-02-12T16:21:33;8.61;82.99
71088;SHT31;58747;50.674;4.616;2023-02-12T16:23:59;8.68;82.65
71088;SHT31;58747;50.674;4.616;2023-02-12T16:26:25;8.68;82.54
71088;SHT31;58747;50.674;4.616;2023-02-12T16:28:54;8.53;82.76
71088;SHT31;58747;50.674;4.616;2023-02-12T16:31:21;8.46;82.92
71088;SHT31;58747;50.674;4.616;2023-02-12T16:33:52;8.50;82.91
71088;SHT31;58747;50.674;4.616;2023-02-12T16:38:54;8.47;83.09
71088;SHT31;58747;50.674;4.616;2023-02-12T16:46:53;8.36;83.26
71088;SHT31;58747;50.674;4.616;2023-02-12T16:49:22;8.30;83.32
71088;SHT31;58747;50.674;4.616;2023-02-12T16:51:49;8.32;83.28
71088;SHT31;58747;50.674;4.616;2023-02-12T16:54:26;8.32;83.30
71088;SHT31;58747;50.674;4.616;2023-02-12T16:56:51;8.28;83.25
71088;SHT31;58747;50.674;4.616;2023-02-12T16:59:17;8.26;83.28
71088;SHT31;58747;50.674;4.616;2023-02-12T17:04:23;8.19;83.58
71088;SHT31;58747;50.674;4.616;2023-02-12T17:06:49;8.19;83.52
71088;SHT31;58747;50.674;4.616;2023-02-12T17:09:14;8.17;83.52
71088;SHT31;58747;50.674;4.616;2023-02-12T17:11:39;8.21;83.54
71088;SHT31;58747;50.674;4.616;2023-02-12T17:14:10;8.19;83.37
71088;SHT31;58747;50.674;4.616;2023-02-12T17:16:38;8.12;83.51
71088;SHT31;58747;50.674;4.616;2023-02-12T17:19:03;8.10;83.59
71088;SHT31;58747;50.674;4.616;2023-02-12T17:21:31;8.15;83.46
71088;SHT31;58747;50.674;4.616;2023-02-12T17:24:02;8.10;83.51
71088;SHT31;58747;50.674;4.616;2023-02-12T17:26:27;8.10;83.53
71088;SHT31;58747;50.674;4.616;2023-02-12T17:28:53;8.16;83.50
71088;SHT31;58747;50.674;4.616;2023-02-12T17:31:18;8.19;83.51
71088;SHT31;58747;50.674;4.616;2023-02-12T17:33:44;8.19;83.17
71088;SHT31;58747;50.674;4.616;2023-02-12T17:36:11;8.36;83.58
71088;SHT31;58747;50.674;4.616;2023-02-12T17:38:36;8.35;82.72
71088;SHT31;58747;50.674;4.616;2023-02-12T17:41:08;8.26;82.88
71088;SHT31;58747;50.674;4.616;2023-02-12T17:43:33;8.19;82.95
71088;SHT31;58747;50.674;4.616;2023-02-12T17:45:59;8.19;83.18
71088;SHT31;58747;50.674;4.616;2023-02-12T17:48:25;8.10;83.17
71088;SHT31;58747;50.674;4.616;2023-02-12T17:50:54;8.05;83.41
71088;SHT31;58747;50.674;4.616;2023-02-12T17:53:21;8.13;83.30
71088;SHT31;58747;50.674;4.616;2023-02-12T17:55:47;8.13;83.28
71088;SHT31;58747;50.674;4.616;2023-02-12T17:58:12;8.12;83.16
71088;SHT31;58747;50.674;4.616;2023-02-12T18:00:39;8.15;83.26
71088;SHT31;58747;50.674;4.616;2023-02-12T18:03:04;8.15;83.18
71088;SHT31;58747;50.674;4.616;2023-02-12T18:05:30;8.09;83.36
71088;SHT31;58747;50.674;4.616;2023-02-12T18:07:55;8.08;83.43
71088;SHT31;58747;50.674;4.616;2023-02-12T18:10:21;8.12;83.18
71088;SHT31;58747;50.674;4.616;2023-02-12T18:12:46;8.06;83.37
71088;SHT31;58747;50.674;4.616;2023-02-12T18:15:11;8.10;83.45
71088;SHT31;58747;50.674;4.616;2023-02-12T18:17:40;8.13;83.41
71088;SHT31;58747;50.674;4.616;2023-02-12T18:20:07;8.05;83.39
71088;SHT31;58747;50.674;4.616;2023-02-12T18:22:32;8.09;83.36
71088;SHT31;58747;50.674;4.616;2023-02-12T18:24:59;8.12;83.35
71088;SHT31;58747;50.674;4.616;2023-02-12T18:27:24;8.10;83.16
71088;SHT31;58747;50.674;4.616;2023-02-12T18:29:49;8.09;83.23
71088;SHT31;58747;50.674;4.616;2023-02-12T18:32:15;8.02;83.29
71088;SHT31;58747;50.674;4.616;2023-02-12T18:34:43;7.99;83.48
71088;SHT31;58747;50.674;4.616;2023-02-12T18:37:20;8.01;83.50
71088;SHT31;58747;50.674;4.616;2023-02-12T18:39:54;7.96;83.41
71088;SHT31;58747;50.674;4.616;2023-02-12T18:42:48;7.99;83.49
71088;SHT31;58747;50.674;4.616;2023-02-12T18:45:25;7.92;83.59
71088;SHT31;58747;50.674;4.616;2023-02-12T18:48:02;7.89;83.50
71088;SHT31;58747;50.674;4.616;2023-02-12T18:50:41;7.89;83.72
71088;SHT31;58747;50.674;4.616;2023-02-12T18:53:09;7.91;83.83
71088;SHT31;58747;50.674;4.616;2023-02-12T18:55:38;8.25;83.04
71088;SHT31;58747;50.674;4.616;2023-02-12T18:58:06;8.22;82.45
71088;SHT31;58747;50.674;4.616;2023-02-12T19:00:32;8.15;82.67
71088;SHT31;58747;50.674;4.616;2023-02-12T19:03:04;8.08;82.83
71088;SHT31;58747;50.674;4.616;2023-02-12T19:05:30;8.03;82.95
71088;SHT31;58747;50.674;4.616;2023-02-12T19:08:01;7.94;83.07
71088;SHT31;58747;50.674;4.616;2023-02-12T19:10:27;7.94;83.25
71088;SHT31;58747;50.674;4.616;2023-02-12T19:12:54;7.91;83.26
71088;SHT31;58747;50.674;4.616;2023-02-12T19:15:21;7.91;83.29
71088;SHT31;58747;50.674;4.616;2023-02-12T19:17:47;7.89;83.37
71088;SHT31;58747;50.674;4.616;2023-02-12T19:20:21;7.88;83.27
71088;SHT31;58747;50.674;4.616;2023-02-12T19:23:03;7.85;83.29
71088;SHT31;58747;50.674;4.616;2023-02-12T19:25:54;7.82;83.46
71088;SHT31;58747;50.674;4.616;2023-02-12T19:28:30;7.78;83.47
71088;SHT31;58747;50.674;4.616;2023-02-12T19:31:18;7.75;83.61
71088;SHT31;58747;50.674;4.616;2023-02-12T19:33:48;7.78;83.54
71088;SHT31;58747;50.674;4.616;2023-02-12T19:36:20;7.78;83.57
71088;SHT31;58747;50.674;4.616;2023-02-12T19:38:53;7.70;83.68
71088;SHT31;58747;50.674;4.616;2023-02-12T19:41:26;7.77;83.65
71088;SHT31;58747;50.674;4.616;2023-02-12T19:44:05;7.78;83.81
71088;SHT31;58747;50.674;4.616;2023-02-12T19:46:36;7.77;83.96
71088;SHT31;58747;50.674;4.616;2023-02-12T19:49:04;7.63;83.90
71088;SHT31;58747;50.674;4.616;2023-02-12T19:51:30;7.53;84.06
71088;SHT31;58747;50.674;4.616;2023-02-12T19:54:09;7.46;84.02
71088;SHT31;58747;50.674;4.616;2023-02-12T19:56:44;7.34;84.07
71088;SHT31;58747;50.674;4.616;2023-02-12T19:59:21;7.22;84.30
71088;SHT31;58747;50.674;4.616;2023-02-12T20:01:49;7.13;84.27
71088;SHT31;58747;50.674;4.616;2023-02-12T20:04:21;7.02;84.30
71088;SHT31;58747;50.674;4.616;2023-02-12T20:06:47;6.91;84.34
71088;SHT31;58747;50.674;4.616;2023-02-12T20:09:18;6.81;84.57
71088;SHT31;58747;50.674;4.616;2023-02-12T20:11:44;6.68;84.67
71088;SHT31;58747;50.674;4.616;2023-02-12T20:14:13;6.63;84.79
71088;SHT31;58747;50.674;4.616;2023-02-12T20:16:42;6.54;84.99
71088;SHT31;58747;50.674;4.616;2023-02-12T20:19:17;6.45;85.23
71088;SHT31;58747;50.674;4.616;2023-02-12T20:21:46;6.41;85.30
71088;SHT31;58747;50.674;4.616;2023-02-12T20:24:17;6.37;85.39
71088;SHT31;58747;50.674;4.616;2023-02-12T20:26:43;6.31;85.34
71088;SHT31;58747;50.674;4.616;2023-02-12T20:29:08;6.20;85.48
71088;SHT31;58747;50.674;4.616;2023-02-12T20:31:35;6.14;85.59
71088;SHT31;58747;50.674;4.616;2023-02-12T20:34:05;6.11;85.85
71088;SHT31;58747;50.674;4.616;2023-02-12T20:36:33;6.07;85.80
71088;SHT31;58747;50.674;4.616;2023-02-12T20:38:59;6.00;85.54
71088;SHT31;58747;50.674;4.616;2023-02-12T20:41:26;5.88;85.79
71088;SHT31;58747;50.674;4.616;2023-02-12T20:43:51;5.88;85.93
71088;SHT31;58747;50.674;4.616;2023-02-12T20:46:19;5.82;85.93
71088;SHT31;58747;50.674;4.616;2023-02-12T20:48:44;5.78;86.06
71088;SHT31;58747;50.674;4.616;2023-02-12T20:51:16;5.71;85.98
71088;SHT31;58747;50.674;4.616;2023-02-12T20:53:42;5.68;86.27
71088;SHT31;58747;50.674;4.616;2023-02-12T20:56:15;5.61;86.16